Time;durP1;ratioP1;P1;durP2;ratioP2;P2;SDS_P1;SDS_P2;PMS_P1;PMS_P2;Temp;Humidity;BMP_temperature;BMP_pressure;BME280_temperature;BME280_humidity;BME280_pressure;Samples;Min_cycle;Max_cycle;Signal;HPM_P1;HPM_P2
2021/08/10 00:01:26;;;;;;;;;5.75;5.75;;;;;21.37;100.00;101468.00;5118869;27;45637;-64
2021/08/10 00:03:53;;;;;;;;;7.75;7.25;;;;;21.36;100.00;101466.28;5118660;27;46157;-64
2021/08/10 00:06:18;;;;;;;;;6.00;5.25;;;;;21.34;100.00;101457.53;5118591;27;45205;-66
2021/08/10 00:12:06;;;;;;;;;6.75;5.00;;;;;21.31;100.00;101458.53;5118803;27;45335;-64
2021/08/10 00:14:31;;;;;;;;;4.25;4.00;;;;;21.31;100.00;101462.97;5118430;27;46095;-64
2021/08/10 00:16:56;;;;;;;;;5.00;5.00;;;;;21.32;100.00;101462.91;5118515;27;45367;-64
2021/08/10 00:19:22;;;;;;;;;7.00;4.25;;;;;21.23;100.00;101446.50;5118744;27;45269;-63
2021/08/10 00:21:47;;;;;;;;;4.75;4.75;;;;;21.29;100.00;101451.56;5100284;27;45372;-62
2021/08/10 00:24:13;;;;;;;;;6.00;3.75;;;;;21.28;100.00;101453.38;5118289;27;46076;-62
2021/08/10 00:26:38;;;;;;;;;5.00;4.25;;;;;21.30;100.00;101443.53;5118159;27;45406;-63
2021/08/10 00:29:04;;;;;;;;;6.00;5.00;;;;;21.29;100.00;101455.09;5118444;27;45269;-63
2021/08/10 00:31:30;;;;;;;;;4.75;4.50;;;;;21.28;100.00;101455.16;5118530;27;45528;-63
2021/08/10 00:33:56;;;;;;;;;4.75;4.00;;;;;21.19;100.00;101439.63;5118285;27;46616;-63
2021/08/10 00:36:22;;;;;;;;;4.50;4.00;;;;;21.24;100.00;101448.25;5118555;27;45362;-63
2021/08/10 00:42:09;;;;;;;;;4.00;3.00;;;;;21.23;100.00;101450.00;5118488;27;45274;-64
2021/08/10 00:44:34;;;;;;;;;5.00;4.00;;;;;21.21;100.00;101443.06;5118060;27;46863;-63
2021/08/10 00:47:00;;;;;;;;;4.25;4.25;;;;;21.02;100.00;101424.47;5118121;27;45316;-63
2021/08/10 00:49:25;;;;;;;;;3.75;3.25;;;;;21.13;100.00;101448.75;5118271;27;45263;-63
2021/08/10 00:51:51;;;;;;;;;6.00;5.00;;;;;21.14;100.00;101438.97;5118891;27;45366;-64
2021/08/10 00:54:17;;;;;;;;;5.75;5.00;;;;;21.17;100.00;101449.44;5121945;27;46205;-63
2021/08/10 00:56:43;;;;;;;;;6.50;5.00;;;;;21.15;100.00;101461.94;5103147;27;45401;-63
2021/08/10 00:59:09;;;;;;;;;5.75;4.00;;;;;21.16;100.00;101466.31;5121735;27;45337;-64
2021/08/10 01:01:34;;;;;;;;;4.50;3.75;;;;;21.12;100.00;101465.59;5121846;27;45353;-63
2021/08/10 01:03:59;;;;;;;;;4.00;4.00;;;;;21.13;100.00;101469.13;5121711;27;45484;-63
2021/08/10 01:12:54;;;;;;;;;4.00;4.00;;;;;21.06;100.00;101479.19;5121579;27;45360;-63
2021/08/10 01:15:25;;;;;;;;;4.25;4.00;;;;;21.02;100.00;101483.75;5104400;27;45544;-63
2021/08/10 01:17:58;;;;;;;;;5.00;4.00;;;;;21.01;100.00;101492.63;5121266;27;45282;-63
2021/08/10 01:20:24;;;;;;;;;3.75;3.00;;;;;20.98;100.00;101489.25;5121296;27;45325;-63
2021/08/10 01:22:52;;;;;;;;;6.75;5.25;;;;;20.93;100.00;101481.53;5121743;27;45205;-66
2021/08/10 01:25:54;;;;;;;;;7.00;5.00;;;;;20.82;100.00;101481.16;5121399;27;46735;-63
2021/08/10 01:28:25;;;;;;;;;5.75;5.00;;;;;20.70;100.00;101485.22;5121068;27;45394;-64
2021/08/10 01:30:57;;;;;;;;;5.50;5.00;;;;;20.58;100.00;101485.72;5121001;27;45352;-64
2021/08/10 01:33:24;;;;;;;;;5.00;4.00;;;;;20.42;100.00;101477.59;5121176;27;45379;-64
2021/08/10 01:35:51;;;;;;;;;5.25;4.00;;;;;20.34;100.00;101495.59;5120757;27;46654;-64
2021/08/10 01:38:18;;;;;;;;;5.25;5.25;;;;;20.18;100.00;101468.00;5121268;27;45493;-64
2021/08/10 01:40:45;;;;;;;;;5.00;5.00;;;;;20.09;100.00;101463.09;5121267;27;45279;-64
2021/08/10 01:43:12;;;;;;;;;5.50;5.00;;;;;20.04;100.00;101465.94;5121404;27;45230;-64
2021/08/10 01:45:38;;;;;;;;;5.00;4.75;;;;;20.00;100.00;101467.00;5121009;27;45764;-64
2021/08/10 01:48:11;;;;;;;;;7.00;6.00;;;;;19.92;100.00;101468.25;5120643;27;45699;-63
2021/08/10 01:50:37;;;;;;;;;5.00;5.00;;;;;19.91;100.00;101482.41;5121182;27;45500;-66
2021/08/10 01:53:04;;;;;;;;;6.75;5.00;;;;;19.78;100.00;101460.84;5120863;27;45324;-64
2021/08/10 01:55:30;;;;;;;;;5.25;5.00;;;;;19.82;100.00;101473.91;5120910;27;45472;-63
2021/08/10 01:57:58;;;;;;;;;5.50;5.50;;;;;19.77;100.00;101475.03;5120687;27;45605;-63
2021/08/10 02:00:26;;;;;;;;;6.00;5.75;;;;;19.66;100.00;101472.81;5121067;27;45283;-63
2021/08/10 02:02:52;;;;;;;;;5.75;5.00;;;;;19.63;100.00;101486.19;5120720;27;45381;-63
2021/08/10 02:05:21;;;;;;;;;5.75;5.50;;;;;19.68;100.00;101499.22;5120334;27;46239;-63
2021/08/10 02:07:46;;;;;;;;;7.00;6.00;;;;;19.58;100.00;101489.00;5120738;27;45524;-67
2021/08/10 02:10:13;;;;;;;;;6.00;5.00;;;;;19.45;100.00;101490.38;5120852;27;45316;-65
2021/08/10 02:12:39;;;;;;;;;5.00;5.00;;;;;19.39;100.00;101493.28;5120890;27;45240;-64
2021/08/10 02:15:08;;;;;;;;;5.25;5.25;;;;;19.34;100.00;101505.84;5120356;27;46275;-64
2021/08/10 02:17:33;;;;;;;;;6.00;6.00;;;;;19.21;100.00;101486.88;5120202;27;45389;-65
2021/08/10 02:19:59;;;;;;;;;8.25;7.50;;;;;19.10;100.00;101481.16;5120473;27;45390;-67
2021/08/10 02:22:26;;;;;;;;;7.00;6.00;;;;;19.07;100.00;101481.28;5120554;27;45414;-64
2021/08/10 02:24:57;;;;;;;;;7.25;6.50;;;;;19.04;100.00;101481.41;5120472;27;45469;-64
2021/08/10 02:27:32;;;;;;;;;5.75;5.00;;;;;19.01;100.00;101476.22;5119941;27;45576;-64
2021/08/10 02:30:04;;;;;;;;;7.50;6.25;;;;;18.96;100.00;101467.56;5120261;27;45346;-64
2021/08/10 02:32:30;;;;;;;;;7.00;5.75;;;;;18.92;100.00;101461.53;5120280;27;45557;-64
2021/08/10 02:34:58;;;;;;;;;5.50;5.50;;;;;18.91;100.00;101466.88;5120249;27;45414;-64
2021/08/10 02:37:24;;;;;;;;;7.50;6.75;;;;;18.94;100.00;101475.56;5119962;27;45324;-66
2021/08/10 02:39:52;;;;;;;;;7.75;5.75;;;;;18.90;100.00;101473.94;5120111;27;45349;-65
2021/08/10 02:42:19;;;;;;;;;10.25;7.00;;;;;18.93;100.00;101481.78;5120518;27;45435;-66
2021/08/10 02:44:45;;;;;;;;;7.00;6.00;;;;;18.92;100.00;101487.13;5119684;27;46583;-65
2021/08/10 02:47:12;;;;;;;;;7.50;7.25;;;;;18.85;100.00;101475.91;5119787;27;45463;-65
2021/08/10 02:49:40;;;;;;;;;7.25;7.00;;;;;18.86;100.00;101476.78;5101374;27;45485;-66
2021/08/10 02:52:06;;;;;;;;;9.00;6.25;;;;;18.85;100.00;101475.91;5120027;27;45543;-66
2021/08/10 02:54:32;;;;;;;;;9.00;8.00;;;;;18.87;100.00;101474.06;5119671;27;46695;-65
2021/08/10 02:57:05;;;;;;;;;7.25;7.00;;;;;18.89;100.00;101479.31;5101279;27;45333;-64
2021/08/10 02:59:35;;;;;;;;;8.00;6.00;;;;;18.90;100.00;101458.06;5119700;27;45333;-65
2021/08/10 03:02:20;;;;;;;;;6.00;4.25;;;;;18.93;100.00;101459.75;5119888;27;45464;-65
2021/08/10 03:05:02;;;;;;;;;6.00;5.50;;;;;18.93;100.00;101463.25;5119456;27;46789;-64
2021/08/10 03:07:30;;;;;;;;;8.00;6.50;;;;;18.91;100.00;101465.09;5119353;27;45515;-64
2021/08/10 03:10:00;;;;;;;;;7.00;7.00;;;;;18.95;100.00;101472.00;5119891;27;45227;-65
2021/08/10 03:12:29;;;;;;;;;9.50;7.00;;;;;18.97;100.00;101470.16;5119868;27;45788;-64
2021/08/10 03:14:56;;;;;;;;;9.00;7.75;;;;;18.99;100.00;101478.03;5118654;27;47485;-64
2021/08/10 03:17:24;;;;;;;;;6.00;6.00;;;;;18.93;100.00;101468.53;5119319;27;45352;-64
2021/08/10 03:19:50;;;;;;;;;8.25;7.00;;;;;18.97;100.00;101474.56;5119386;27;45456;-64
2021/08/10 03:22:16;;;;;;;;;6.75;6.00;;;;;18.95;100.00;101455.25;5119881;27;45412;-64
2021/08/10 03:24:46;;;;;;;;;7.50;7.50;;;;;18.92;100.00;101439.50;5119342;27;46628;-64
2021/08/10 03:27:12;;;;;;;;;8.25;7.75;;;;;18.97;100.00;101446.34;5119010;27;45545;-64
2021/08/10 03:29:38;;;;;;;;;5.25;5.00;;;;;19.03;100.00;101458.50;5119279;27;45358;-64
2021/08/10 03:32:05;;;;;;;;;7.50;6.75;;;;;19.05;100.00;101469.88;5119302;27;45420;-64
2021/08/10 03:34:32;;;;;;;;;6.00;5.50;;;;;19.08;100.00;101468.91;5119006;27;45756;-64
2021/08/10 03:37:00;;;;;;;;;7.00;6.25;;;;;19.02;100.00;101463.84;5118968;27;45473;-64
2021/08/10 03:42:48;;;;;;;;;5.25;5.00;;;;;18.92;100.00;101437.72;5119284;27;45406;-65
2021/08/10 03:45:14;;;;;;;;;6.00;6.00;;;;;19.10;100.00;101469.72;5118865;27;46308;-64
2021/08/10 03:47:39;;;;;;;;;6.75;5.00;;;;;19.10;100.00;101470.56;5119002;27;45279;-64
2021/08/10 03:50:06;;;;;;;;;7.25;5.00;;;;;19.11;100.00;101471.44;5119311;27;45322;-65
2021/08/10 03:52:32;;;;;;;;;6.00;6.00;;;;;18.96;100.00;101446.38;5119049;27;45416;-63
2021/08/10 03:54:57;;;;;;;;;8.50;6.00;;;;;19.06;100.00;101468.97;5119116;27;45436;-63
2021/08/10 03:57:24;;;;;;;;;8.25;7.00;;;;;19.08;100.00;101472.41;5118757;27;45348;-63
2021/08/10 03:59:56;;;;;;;;;7.00;7.00;;;;;19.08;100.00;101464.47;5119199;27;45377;-64
2021/08/10 04:02:22;;;;;;;;;5.25;5.00;;;;;19.02;100.00;101456.78;5118893;27;45408;-65
2021/08/10 04:04:51;;;;;;;;;7.25;7.00;;;;;19.09;100.00;101468.84;5118757;27;46408;-65
2021/08/10 04:07:18;;;;;;;;;8.00;6.00;;;;;19.07;100.00;101464.53;5118621;27;45519;-64
2021/08/10 04:09:43;;;;;;;;;6.50;6.00;;;;;19.07;100.00;101459.22;5118930;27;45286;-68
2021/08/10 04:12:11;;;;;;;;;6.25;5.25;;;;;19.12;100.00;101470.50;5118829;27;45407;-64
2021/08/10 04:14:40;;;;;;;;;9.75;8.00;;;;;19.06;100.00;101462.81;5118448;27;46909;-64
2021/08/10 04:17:07;;;;;;;;;7.50;7.25;;;;;19.05;100.00;101461.94;5118876;27;45580;-64
2021/08/10 04:19:36;;;;;;;;;8.75;7.00;;;;;19.08;100.00;101474.19;5118632;27;45282;-64
2021/08/10 04:22:03;;;;;;;;;6.00;6.00;;;;;19.08;100.00;101476.84;5118734;27;45468;-67
2021/08/10 04:27:49;;;;;;;;;7.00;6.00;;;;;19.08;100.00;101482.13;5118883;27;45489;-64
2021/08/10 04:30:15;;;;;;;;;9.00;6.50;;;;;19.05;100.00;101476.97;5122158;27;45310;-64
2021/08/10 04:32:40;;;;;;;;;7.00;6.25;;;;;19.06;100.00;101484.84;5122509;27;45197;-64
2021/08/10 04:35:06;;;;;;;;;8.50;7.75;;;;;19.05;100.00;101477.81;5122185;27;46847;-64
2021/08/10 04:37:31;;;;;;;;;9.00;7.00;;;;;19.08;100.00;101480.34;5121784;27;45430;-64
2021/08/10 04:39:57;;;;;;;;;8.00;7.00;;;;;19.05;100.00;101469.88;5121915;27;45366;-68
2021/08/10 04:42:22;;;;;;;;;7.00;7.00;;;;;19.11;100.00;101477.59;5122044;27;45478;-64
2021/08/10 04:44:47;;;;;;;;;7.00;5.50;;;;;19.11;100.00;101479.38;5122005;27;45764;-64
2021/08/10 04:47:13;;;;;;;;;7.25;6.00;;;;;19.13;100.00;101481.03;5121706;27;45291;-63
2021/08/10 04:49:39;;;;;;;;;6.25;6.00;;;;;19.12;100.00;101478.44;5121812;27;45328;-64
2021/08/10 04:52:04;;;;;;;;;6.50;6.50;;;;;19.11;100.00;101482.03;5122157;27;45367;-64
2021/08/10 04:57:52;;;;;;;;;7.25;7.00;;;;;19.12;100.00;101484.59;5121723;27;45476;-63
2021/08/10 05:00:18;;;;;;;;;8.50;7.00;;;;;19.18;100.00;101484.38;5121637;27;45467;-65
2021/08/10 05:02:43;;;;;;;;;6.25;5.75;;;;;19.16;100.00;101483.56;5122014;27;45367;-63
2021/08/10 05:05:09;;;;;;;;;6.00;5.00;;;;;19.12;100.00;101481.97;5121209;27;47193;-64
2021/08/10 05:07:35;;;;;;;;;6.75;6.75;;;;;19.16;100.00;101496.78;5121431;27;45296;-63
2021/08/10 05:10:02;;;;;;;;;6.00;5.00;;;;;19.16;100.00;101486.22;5121441;27;45356;-65
2021/08/10 05:12:27;;;;;;;;;8.75;7.00;;;;;19.18;100.00;101492.31;5121447;27;45515;-63
2021/08/10 05:14:53;;;;;;;;;8.25;6.50;;;;;19.11;100.00;101479.38;5121432;27;46214;-67
2021/08/10 05:17:18;;;;;;;;;5.50;5.25;;;;;19.16;100.00;101496.78;5121336;27;45322;-63
2021/08/10 05:19:43;;;;;;;;;8.75;5.25;;;;;19.16;100.00;101480.06;5121569;27;45355;-64
2021/08/10 05:22:09;;;;;;;;;6.25;5.00;;;;;19.23;100.00;101492.97;5121488;27;45222;-65
2021/08/10 05:27:56;;;;;;;;;7.75;6.50;;;;;19.23;100.00;101495.63;5120601;27;45651;-64
2021/08/10 05:30:21;;;;;;;;;7.50;6.00;;;;;19.20;100.00;101481.66;5121173;27;45342;-65
2021/08/10 05:32:47;;;;;;;;;9.00;7.00;;;;;19.27;100.00;101502.56;5121164;27;45294;-64
2021/08/10 05:35:12;;;;;;;;;9.25;7.00;;;;;19.28;100.00;101504.28;5120755;27;46099;-65
2021/08/10 05:37:38;;;;;;;;;7.25;5.00;;;;;19.32;100.00;101507.69;5120363;27;45375;-64
2021/08/10 05:40:04;;;;;;;;;7.00;6.50;;;;;19.28;100.00;101493.69;5120984;27;45216;-65
2021/08/10 05:42:29;;;;;;;;;6.00;5.00;;;;;19.42;100.00;101505.53;5102758;27;45319;-65
2021/08/10 05:44:55;;;;;;;;;7.00;7.00;;;;;19.42;100.00;101497.56;5120870;27;46391;-65
2021/08/10 05:47:20;;;;;;;;;6.00;4.75;;;;;19.43;100.00;101492.22;5120736;27;45313;-65
2021/08/10 05:49:45;;;;;;;;;7.50;6.00;;;;;19.46;100.00;101500.06;5120907;27;45277;-65
2021/08/10 05:52:11;;;;;;;;;5.00;4.75;;;;;19.52;100.00;101506.91;5120816;27;45475;-65
2021/08/10 05:57:58;;;;;;;;;5.00;5.00;;;;;19.55;100.00;101497.09;5120743;27;45266;-64
2021/08/10 06:00:23;;;;;;;;;6.00;5.50;;;;;19.60;100.00;101507.50;5120925;27;45306;-64
2021/08/10 06:02:49;;;;;;;;;5.75;5.50;;;;;19.57;100.00;101495.25;5120673;27;45209;-64
2021/08/10 06:05:14;;;;;;;;;5.75;4.50;;;;;19.65;100.00;101509.97;5120711;27;45376;-64
2021/08/10 06:13:45;;;;;;;;;5.00;5.00;;;;;19.77;100.00;101509.47;5120569;27;45349;-64
2021/08/10 06:16:10;;;;;;;;;6.25;6.00;;;;;19.82;100.00;101507.50;5120529;27;45374;-64
2021/08/10 06:18:36;;;;;;;;;6.75;5.25;;;;;19.85;100.00;101510.88;5120448;27;45364;-64
2021/08/10 06:21:01;;;;;;;;;5.25;5.00;;;;;19.85;100.00;101507.38;5120371;27;45310;-63
2021/08/10 06:23:27;;;;;;;;;2.00;2.00;;;;;19.78;100.00;101490.00;5120719;27;45434;-64
2021/08/10 06:25:52;;;;;;;;;6.25;5.25;;;;;19.88;100.00;101504.59;5119878;27;46538;-65
2021/08/10 06:28:17;;;;;;;;;6.25;6.00;;;;;19.91;100.00;101495.66;5119992;27;45473;-64
2021/08/10 06:30:46;;;;;;;;;4.00;4.00;;;;;19.98;100.00;101500.66;5120194;27;45310;-63
2021/08/10 06:33:11;;;;;;;;;5.75;5.00;;;;;20.11;100.00;101507.16;5120122;27;45294;-64
2021/08/10 06:35:36;;;;;;;;;6.25;6.25;;;;;20.12;100.00;101498.28;5120035;27;46947;-64
2021/08/10 06:38:02;;;;;;;;;7.00;5.75;;;;;20.14;100.00;101504.41;5119860;27;45374;-64
2021/08/10 06:40:27;;;;;;;;;5.00;5.00;;;;;20.18;100.00;101499.84;5120188;27;45443;-64
2021/08/10 06:42:52;;;;;;;;;5.50;4.00;;;;;20.17;100.00;101490.16;5120180;27;45495;-64
2021/08/10 06:45:18;;;;;;;;;8.00;5.50;;;;;20.27;100.00;101502.09;5119613;27;47166;-63
2021/08/10 06:47:43;;;;;;;;;6.00;5.25;;;;;20.32;100.00;101510.69;5119597;27;45341;-64
2021/08/10 06:50:09;;;;;;;;;7.00;6.75;;;;;20.41;100.00;101510.38;5119170;27;45376;-64
2021/08/10 06:52:35;;;;;;;;;5.25;4.00;;;;;20.48;100.00;101509.16;5119852;27;45527;-63
2021/08/10 06:58:22;;;;;;;;;5.00;5.00;;;;;20.49;100.00;101504.72;5119461;27;45324;-64
2021/08/10 07:00:47;;;;;;;;;6.25;5.00;;;;;20.47;100.00;101510.09;5119678;27;45321;-64
2021/08/10 07:03:13;;;;;;;;;5.75;5.75;;;;;20.51;100.00;101505.50;5119892;27;45255;-64
2021/08/10 07:05:38;;;;;;;;;5.25;4.75;;;;;20.54;100.00;101499.19;5119256;27;45368;-65
2021/08/10 07:08:04;;;;;;;;;4.50;4.50;;;;;20.62;100.00;101503.28;5119428;27;45326;-64
2021/08/10 07:10:29;;;;;;;;;5.50;5.00;;;;;20.72;100.00;101511.66;5119644;27;45283;-64
2021/08/10 07:12:55;;;;;;;;;5.00;4.25;;;;;20.77;100.00;101505.22;5119513;27;45511;-63
2021/08/10 07:15:20;;;;;;;;;3.75;3.75;;;;;20.78;100.00;101503.44;5119138;27;47101;-64
2021/08/10 07:17:46;;;;;;;;;4.25;4.25;;;;;20.88;100.00;101512.72;5119222;27;45358;-63
2021/08/10 07:20:12;;;;;;;;;5.50;5.00;;;;;20.86;100.00;101511.06;5119388;27;45288;-63
2021/08/10 07:22:37;;;;;;;;;4.75;4.00;;;;;20.85;100.00;101512.88;5119629;27;45174;-68
2021/08/10 07:28:24;;;;;;;;;5.50;5.50;;;;;20.95;100.00;101521.28;5118286;27;45458;-63
2021/08/10 07:30:49;;;;;;;;;5.50;4.00;;;;;21.04;100.00;101520.84;5119139;27;45373;-64
2021/08/10 07:33:15;;;;;;;;;4.75;4.75;;;;;21.06;100.00;101511.03;5119517;27;45382;-63
2021/08/10 07:35:40;;;;;;;;;5.75;5.25;;;;;21.10;100.00;101515.28;5119153;27;46452;-64
2021/08/10 07:38:06;;;;;;;;;4.75;4.75;;;;;21.25;100.00;101525.19;5118908;27;45325;-64
2021/08/10 07:43:53;;;;;;;;;6.00;4.25;;;;;21.44;100.00;101530.53;5119216;27;45280;-64
2021/08/10 07:46:19;;;;;;;;;3.75;3.75;;;;;21.45;100.00;101526.06;5118734;27;46475;-64
2021/08/10 07:48:44;;;;;;;;;5.00;5.00;;;;;21.43;100.00;101520.84;5118604;27;45369;-63
2021/08/10 07:51:09;;;;;;;;;3.75;3.75;;;;;21.42;100.00;101523.56;5118771;27;45433;-62
2021/08/10 07:53:36;;;;;;;;;5.00;5.00;;;;;21.52;100.00;101523.09;5100436;27;45541;-64
2021/08/10 07:56:02;;;;;;;;;5.00;4.50;;;;;21.63;100.00;101539.38;5100095;27;46525;-64
2021/08/10 07:58:28;;;;;;;;;5.00;4.00;;;;;21.73;100.00;101533.59;5118361;27;45247;-64
2021/08/10 08:00:53;;;;;;;;;7.25;6.50;;;;;21.76;100.00;101522.84;5118508;27;45259;-64
2021/08/10 08:03:18;;;;;;;;;6.00;5.25;;;;;21.87;100.00;101534.66;5118817;27;45367;-64
2021/08/10 08:05:44;;;;;;;;;5.75;5.00;;;;;21.95;100.00;101528.97;5118641;27;45296;-64
2021/08/10 08:08:09;;;;;;;;;5.00;5.00;;;;;21.99;100.00;101526.09;5118716;27;45342;-64
2021/08/10 08:13:56;;;;;;;;;4.00;4.00;;;;;22.15;100.00;101526.22;5118448;27;45386;-64
2021/08/10 08:16:22;;;;;;;;;6.50;5.25;;;;;22.18;100.00;101527.84;5117981;27;46332;-63
2021/08/10 08:18:47;;;;;;;;;5.75;4.50;;;;;22.22;100.00;101532.97;5118385;27;45323;-64
2021/08/10 08:21:13;;;;;;;;;7.00;5.00;;;;;22.25;100.00;101532.81;5118458;27;45260;-63
2021/08/10 08:23:38;;;;;;;;;4.50;4.50;;;;;22.38;100.00;101538.34;5118619;27;45471;-62
2021/08/10 08:26:06;;;;;;;;;6.00;5.50;;;;;22.48;100.00;101536.97;5117898;27;47214;-62
2021/08/10 08:28:32;;;;;;;;;4.25;4.25;;;;;22.56;100.00;101533.91;5117849;27;45290;-63
2021/08/10 08:30:58;;;;;;;;;5.00;5.00;;;;;22.64;100.00;101526.41;5117924;27;45350;-65
2021/08/10 08:33:23;;;;;;;;;6.75;5.75;;;;;22.76;100.00;101533.72;5118265;27;45308;-64
2021/08/10 08:35:48;;;;;;;;;3.75;3.75;;;;;22.86;100.00;101528.84;5117912;27;46499;-63
2021/08/10 08:38:15;;;;;;;;;6.00;3.75;;;;;23.02;100.00;101524.38;5117689;27;45339;-63
2021/08/10 08:44:02;;;;;;;;;4.25;4.25;;;;;23.24;100.00;101524.09;5117942;27;45343;-64
2021/08/10 08:46:27;;;;;;;;;4.25;4.25;;;;;23.35;100.00;101515.50;5117449;27;46499;-64
2021/08/10 08:48:55;;;;;;;;;3.25;2.75;;;;;23.47;100.00;101517.47;5117560;27;45431;-64
2021/08/10 08:51:24;;;;;;;;;3.75;3.25;;;;;23.54;100.00;101516.22;5117413;27;45350;-65
2021/08/10 08:53:52;;;;;;;;;4.50;4.50;;;;;23.60;100.00;101517.69;5117783;27;45302;-64
2021/08/10 08:56:20;;;;;;;;;4.75;4.50;;;;;23.79;100.00;101515.72;5117541;27;46288;-64
2021/08/10 08:58:46;;;;;;;;;4.00;4.00;;;;;24.04;100.00;101517.84;5099154;27;45625;-64
2021/08/10 09:01:12;;;;;;;;;5.25;4.00;;;;;24.26;100.00;101528.13;5118022;27;45328;-63
2021/08/10 09:03:38;;;;;;;;;5.00;4.00;;;;;24.39;100.00;101526.44;5118067;27;45241;-66
2021/08/10 09:06:03;;;;;;;;;4.00;4.00;;;;;24.45;100.00;101519.91;5118037;27;46401;-64
2021/08/10 09:08:34;;;;;;;;;3.25;3.00;;;;;24.63;100.00;101530.31;5117670;27;45327;-65
2021/08/10 09:11:05;;;;;;;;;4.25;4.25;;;;;24.77;100.00;101526.81;5117556;27;45496;-64
2021/08/10 09:13:32;;;;;;;;;4.25;3.75;;;;;24.80;100.00;101517.75;5119262;27;45647;-65
2021/08/10 09:16:06;;;;;;;;;5.25;4.00;;;;;25.04;100.00;101524.28;5120677;27;47086;-64
2021/08/10 09:18:34;;;;;;;;;4.50;4.00;;;;;25.18;100.00;101504.72;5120877;27;45533;-64
2021/08/10 09:21:12;;;;;;;;;5.00;4.75;;;;;25.38;100.00;101512.34;5121063;27;45406;-65
2021/08/10 09:26:59;;;;;;;;;5.50;4.50;;;;;25.74;100.00;101519.81;5120628;27;45491;-64
2021/08/10 09:29:24;;;;;;;;;5.00;4.00;;;;;25.84;100.00;101512.06;5120200;27;45273;-64
2021/08/10 09:31:53;;;;;;;;;5.25;3.25;;;;;25.82;100.00;101506.81;5120601;27;45431;-65
2021/08/10 09:34:21;;;;;;;;;4.00;4.00;;;;;25.95;100.00;101514.88;5120856;27;45465;-66
2021/08/10 09:36:47;;;;;;;;;2.25;2.25;;;;;26.18;100.00;101510.66;5120826;27;45609;-66
2021/08/10 09:42:34;;;;;;;;;2.50;2.50;;;;;27.06;100.00;101503.69;5120628;27;45418;-66
2021/08/10 09:45:04;;;;;;;;;3.75;3.00;;;;;27.42;100.00;101506.44;5102203;27;45475;-65
2021/08/10 09:47:40;;;;;;;;;6.75;4.75;;;;;27.84;100.00;101506.06;5120251;27;46457;-66
2021/08/10 09:50:16;;;;;;;;;3.25;3.00;;;;;27.88;100.00;101500.38;5120269;27;45604;-65
2021/08/10 09:52:42;;;;;;;;;3.00;2.25;;;;;27.87;100.00;101511.22;5120114;27;45429;-66
2021/08/10 09:58:28;;;;;;;;;3.00;3.00;;;;;28.10;100.00;101504.97;5120361;27;45327;-65
2021/08/10 10:00:59;;;;;;;;;2.25;2.25;;;;;28.33;100.00;101508.63;5120225;27;45354;-66
2021/08/10 10:03:27;;;;;;;;;4.00;3.50;;;;;29.31;100.00;101511.69;5120345;27;45365;-63
2021/08/10 10:05:53;;;;;;;;;4.50;2.25;;;;;30.27;100.00;101495.63;5120602;27;45417;-62
2021/08/10 10:08:24;;;;;;;;;4.00;3.00;;;;;30.97;100.00;101503.88;5120139;27;46169;-62
2021/08/10 10:14:12;;;;;;;;;2.25;2.25;;;;;30.63;100.00;101505.97;5120406;27;45289;-61
2021/08/10 10:16:43;;;;;;;;;2.00;2.00;;;;;30.42;100.00;101491.63;5120339;27;45561;-63
2021/08/10 10:19:10;;;;;;;;;3.25;2.00;;;;;30.34;100.00;101497.69;5120486;27;45403;-63
2021/08/10 10:21:51;;;;;;;;;3.75;3.00;;;;;29.99;100.00;101497.94;5120357;27;45405;-61
2021/08/10 10:24:22;;;;;;;;;3.00;3.00;;;;;29.96;100.00;101502.72;5119963;27;45388;-62
2021/08/10 10:27:09;;;;;;;;;3.00;2.00;;;;;29.71;100.00;101507.47;5120000;27;45339;-66
2021/08/10 10:29:35;;;;;;;;;3.75;3.00;;;;;29.07;100.00;101507.28;5119653;27;46217;-62
2021/08/10 10:32:01;;;;;;;;;2.25;2.00;;;;;29.20;100.00;101509.88;5119889;27;45285;-61
2021/08/10 10:34:27;;;;;;;;;2.00;2.00;;;;;30.11;100.00;101502.34;5119948;27;45220;-62
2021/08/10 10:36:54;;;;;;;;;2.00;2.00;;;;;30.45;100.00;101502.16;5120211;27;45339;-63
2021/08/10 10:39:27;;;;;;;;;3.75;2.25;;;;;30.18;100.00;101500.81;5119604;27;47411;-62
2021/08/10 10:41:56;;;;;;;;;1.00;1.00;;;;;29.94;100.00;101496.63;5119757;27;45346;-60
2021/08/10 10:44:47;;;;;;;;;2.00;2.00;;;;;29.92;100.00;101490.53;5120119;27;45458;-62
2021/08/10 10:47:21;;;;;;;;;2.00;2.00;;;;;30.52;100.00;101491.69;5119945;27;45370;-62
2021/08/10 10:49:48;;;;;;;;;1.50;1.50;;;;;31.56;100.00;101483.34;5119436;27;45592;-62
2021/08/10 10:52:17;;;;;;;;;3.00;2.00;;;;;31.23;100.00;101477.31;5119406;27;45455;-63
2021/08/10 10:54:44;;;;;;;;;3.00;2.00;;;;;30.70;100.00;101493.66;5101186;27;45403;-62
2021/08/10 10:57:33;;;;;;;;;1.00;1.00;;;;;30.07;100.00;101497.31;5119929;27;45570;-63
2021/08/10 11:00:04;;;;;;;;;2.00;2.00;;;;;29.49;100.00;101491.38;5119198;27;47206;-61
2021/08/10 11:02:31;;;;;;;;;2.00;2.00;;;;;29.10;100.00;101495.44;5119082;27;45383;-61
2021/08/10 11:05:08;;;;;;;;;2.00;2.00;;;;;28.80;100.00;101498.69;5119285;27;45366;-61
2021/08/10 11:07:39;;;;;;;;;2.75;2.00;;;;;28.50;100.00;101493.88;5119748;27;45292;-61
2021/08/10 11:10:31;;;;;;;;;3.25;3.25;;;;;28.26;100.00;101502.00;5119142;27;47230;-61
2021/08/10 11:12:56;;;;;;;;;1.75;1.00;;;;;28.14;100.00;101493.03;5055421;28;45637;-62
2021/08/10 11:15:23;;;;;;;;;3.00;3.00;;;;;28.03;100.00;101492.97;5055900;28;45376;-60
2021/08/10 11:18:18;;;;;;;;;1.25;1.25;;;;;27.87;100.00;101503.19;5056051;28;45564;-60
2021/08/10 11:20:50;;;;;;;;;3.00;2.00;;;;;27.67;100.00;101491.25;5055824;28;45326;-61
2021/08/10 11:23:22;;;;;;;;;1.25;1.25;;;;;27.54;100.00;101501.13;5055509;28;45558;-61
2021/08/10 11:25:59;;;;;;;;;2.25;1.25;;;;;27.45;100.00;101497.28;5055688;28;45450;-61
2021/08/10 11:28:32;;;;;;;;;4.00;1.25;;;;;27.51;100.00;101499.53;5055980;28;45544;-61
2021/08/10 11:31:09;;;;;;;;;2.25;1.50;;;;;27.53;100.00;101500.25;5055546;28;46654;-60
2021/08/10 11:33:37;;;;;;;;;2.50;1.50;;;;;27.58;100.00;101508.81;5055354;28;45342;-62
2021/08/10 11:36:11;;;;;;;;;1.75;1.75;;;;;27.59;100.00;101507.84;5055081;28;45369;-60
2021/08/10 11:38:51;;;;;;;;;2.00;2.00;;;;;27.51;100.00;101501.34;5055624;28;45566;-62
2021/08/10 11:41:31;;;;;;;;;1.75;1.75;;;;;27.39;100.00;101508.47;5055074;28;45842;-62
2021/08/10 11:43:59;;;;;;;;;2.75;2.00;;;;;27.15;100.00;101495.84;5055359;28;45504;-64
2021/08/10 11:46:30;;;;;;;;;2.75;2.25;;;;;26.99;100.00;101503.28;5055375;28;45429;-62
2021/08/10 11:48:57;;;;;;;;;2.25;2.25;;;;;26.80;100.00;101509.06;5065462;27;45428;-67
2021/08/10 11:51:38;;;;;;;;;3.00;2.00;;;;;26.73;100.00;101509.59;5118452;27;45613;-62
2021/08/10 11:54:09;;;;;;;;;2.25;2.00;;;;;26.98;100.00;101506.91;5118609;27;45357;-62
2021/08/10 11:56:39;;;;;;;;;2.25;2.25;;;;;28.05;100.00;101497.25;5118109;27;45364;-65
2021/08/10 11:59:14;;;;;;;;;1.75;1.75;;;;;28.35;100.00;101496.78;5118757;27;45400;-63
2021/08/10 12:01:40;;;;;;;;;2.50;2.00;;;;;28.16;100.00;101499.13;5118690;27;45442;-63
2021/08/10 12:04:08;;;;;;;;;3.00;2.00;;;;;27.92;100.00;101501.84;5100172;27;45375;-63
2021/08/10 12:06:34;;;;;;;;;2.00;2.00;;;;;27.92;100.00;101501.00;5118489;27;45305;-65
2021/08/10 12:09:08;;;;;;;;;3.25;2.50;;;;;28.12;100.00;101492.28;5118698;27;45517;-64
2021/08/10 12:11:34;;;;;;;;;3.25;2.00;;;;;28.53;100.00;101486.47;5118100;27;46955;-64
2021/08/10 12:14:08;;;;;;;;;1.00;1.00;;;;;29.02;100.00;101482.59;5118122;27;45336;-64
2021/08/10 12:16:33;;;;;;;;;1.00;1.00;;;;;29.45;100.00;101474.63;5118225;27;45320;-63
2021/08/10 12:18:59;;;;;;;;;2.00;1.00;;;;;29.87;100.00;101478.31;5118698;27;45445;-63
2021/08/10 12:21:24;;;;;;;;;0.75;0.75;;;;;30.13;100.00;101468.03;5117977;27;46263;-62
2021/08/10 12:23:50;;;;;;;;;1.00;1.00;;;;;30.35;100.00;101458.13;5118290;27;45328;-63
2021/08/10 12:26:20;;;;;;;;;0.00;0.00;;;;;30.77;100.00;101459.78;5118524;27;45479;-62